Beaminster, United Kingdom
Current Conditions -  °F | °C
As of 7:50 AM on Friday 28 Nov 2014 (Local Time) from EGDY Reporting Station
Haze Haze  
Wind Chill: 10°   Ceiling: 1500
Heat Index: 10°   Visibility: 5mi
Dew Point:   Wind: 16mph
Humidity: 87%   Direction: 90°E
Pressure: 29.5"   Gusts: NA
Location:  50.81°N, 2.74°W
Report Text: EGDY 280750Z 09014KT 8000 HZ BKN015 10/08 Q0999 WHT NOSIG
Loading
Personal Weather Stations






























Interactive Weather Map New forecast layout! Learn more

10-Day Weather Forecast

Advertisements
Track Severe Weather on mobile